sensor_id;sensor_type;location;lat;lon;timestamp;P1;durP1;ratioP1;P2;durP2;ratioP2
26512;SDS011;14186;53.822;10.152;2023-03-14T00:00:05;14.70;;;3.22;;
26512;SDS011;14186;53.822;10.152;2023-03-14T00:05:07;16.30;;;3.58;;
26512;SDS011;14186;53.822;10.152;2023-03-14T00:10:08;14.27;;;3.20;;
26512;SDS011;14186;53.822;10.152;2023-03-14T00:15:09;10.25;;;2.47;;
26512;SDS011;14186;53.822;10.152;2023-03-14T00:20:12;11.82;;;2.38;;
26512;SDS011;14186;53.822;10.152;2023-03-14T00:25:12;18.33;;;2.80;;
26512;SDS011;14186;53.822;10.152;2023-03-14T00:30:12;12.40;;;2.13;;
26512;SDS011;14186;53.822;10.152;2023-03-14T00:35:14;9.73;;;1.95;;
26512;SDS011;14186;53.822;10.152;2023-03-14T00:40:14;12.85;;;2.38;;
26512;SDS011;14186;53.822;10.152;2023-03-14T00:45:14;11.20;;;3.42;;
26512;SDS011;14186;53.822;10.152;2023-03-14T00:50:16;10.77;;;2.10;;
26512;SDS011;14186;53.822;10.152;2023-03-14T00:55:16;7.88;;;2.33;;
26512;SDS011;14186;53.822;10.152;2023-03-14T01:00:17;6.93;;;2.17;;
26512;SDS011;14186;53.822;10.152;2023-03-14T01:05:18;12.13;;;2.67;;
26512;SDS011;14186;53.822;10.152;2023-03-14T01:10:19;11.90;;;2.70;;
26512;SDS011;14186;53.822;10.152;2023-03-14T01:15:19;13.90;;;3.90;;
26512;SDS011;14186;53.822;10.152;2023-03-14T01:20:21;12.02;;;2.42;;
26512;SDS011;14186;53.822;10.152;2023-03-14T01:25:21;10.02;;;2.28;;
26512;SDS011;14186;53.822;10.152;2023-03-14T01:30:21;12.70;;;3.20;;
26512;SDS011;14186;53.822;10.152;2023-03-14T01:35:23;8.20;;;2.03;;
26512;SDS011;14186;53.822;10.152;2023-03-14T01:40:23;9.52;;;2.33;;
26512;SDS011;14186;53.822;10.152;2023-03-14T01:50:44;10.90;;;2.40;;
26512;SDS011;14186;53.822;10.152;2023-03-14T01:55:44;13.20;;;3.47;;
26512;SDS011;14186;53.822;10.152;2023-03-14T02:00:44;12.30;;;2.45;;
26512;SDS011;14186;53.822;10.152;2023-03-14T02:05:46;14.18;;;2.63;;
26512;SDS011;14186;53.822;10.152;2023-03-14T02:10:47;10.52;;;2.00;;
26512;SDS011;14186;53.822;10.152;2023-03-14T02:15:47;10.38;;;2.10;;
26512;SDS011;14186;53.822;10.152;2023-03-14T02:20:50;11.32;;;2.20;;
26512;SDS011;14186;53.822;10.152;2023-03-14T02:25:53;14.75;;;2.28;;
26512;SDS011;14186;53.822;10.152;2023-03-14T02:30:57;12.60;;;3.13;;
26512;SDS011;14186;53.822;10.152;2023-03-14T02:35:57;8.18;;;2.50;;
26512;SDS011;14186;53.822;10.152;2023-03-14T02:40:58;12.77;;;2.72;;
26512;SDS011;14186;53.822;10.152;2023-03-14T02:46:00;15.05;;;2.08;;
26512;SDS011;14186;53.822;10.152;2023-03-14T02:51:01;9.23;;;2.55;;
26512;SDS011;14186;53.822;10.152;2023-03-14T02:56:01;9.73;;;2.53;;
26512;SDS011;14186;53.822;10.152;2023-03-14T03:01:03;9.77;;;2.33;;
26512;SDS011;14186;53.822;10.152;2023-03-14T03:06:03;10.73;;;2.70;;
26512;SDS011;14186;53.822;10.152;2023-03-14T03:11:04;9.98;;;2.55;;
26512;SDS011;14186;53.822;10.152;2023-03-14T03:16:06;9.70;;;3.17;;
26512;SDS011;14186;53.822;10.152;2023-03-14T03:21:06;12.15;;;3.25;;
26512;SDS011;14186;53.822;10.152;2023-03-14T03:26:08;9.90;;;3.20;;
26512;SDS011;14186;53.822;10.152;2023-03-14T03:31:11;7.75;;;3.17;;
26512;SDS011;14186;53.822;10.152;2023-03-14T03:36:11;11.18;;;3.55;;
26512;SDS011;14186;53.822;10.152;2023-03-14T03:41:11;10.32;;;3.25;;
26512;SDS011;14186;53.822;10.152;2023-03-14T03:46:13;12.30;;;3.75;;
26512;SDS011;14186;53.822;10.152;2023-03-14T03:51:13;12.05;;;4.05;;
26512;SDS011;14186;53.822;10.152;2023-03-14T03:56:14;9.65;;;3.53;;
26512;SDS011;14186;53.822;10.152;2023-03-14T04:01:15;6.13;;;3.53;;
26512;SDS011;14186;53.822;10.152;2023-03-14T04:06:15;8.68;;;3.28;;
26512;SDS011;14186;53.822;10.152;2023-03-14T04:11:16;11.35;;;3.92;;
26512;SDS011;14186;53.822;10.152;2023-03-14T04:16:18;8.10;;;2.90;;
26512;SDS011;14186;53.822;10.152;2023-03-14T04:21:19;10.57;;;3.13;;
26512;SDS011;14186;53.822;10.152;2023-03-14T04:26:19;11.07;;;3.55;;
26512;SDS011;14186;53.822;10.152;2023-03-14T04:31:21;12.35;;;3.67;;
26512;SDS011;14186;53.822;10.152;2023-03-14T04:36:21;11.98;;;2.92;;
26512;SDS011;14186;53.822;10.152;2023-03-14T04:41:21;8.15;;;3.08;;
26512;SDS011;14186;53.822;10.152;2023-03-14T04:46:23;7.25;;;3.03;;
26512;SDS011;14186;53.822;10.152;2023-03-14T04:51:23;10.68;;;3.10;;
26512;SDS011;14186;53.822;10.152;2023-03-14T04:56:24;7.80;;;2.58;;
26512;SDS011;14186;53.822;10.152;2023-03-14T05:01:25;5.78;;;2.00;;
26512;SDS011;14186;53.822;10.152;2023-03-14T05:06:25;3.90;;;1.60;;
26512;SDS011;14186;53.822;10.152;2023-03-14T05:11:26;4.97;;;1.27;;
26512;SDS011;14186;53.822;10.152;2023-03-14T05:16:27;5.32;;;1.50;;
26512;SDS011;14186;53.822;10.152;2023-03-14T05:21:27;5.85;;;1.10;;
26512;SDS011;14186;53.822;10.152;2023-03-14T05:26:28;4.95;;;0.98;;
26512;SDS011;14186;53.822;10.152;2023-03-14T05:31:29;3.60;;;0.50;;
26512;SDS011;14186;53.822;10.152;2023-03-14T05:36:29;5.25;;;0.93;;
26512;SDS011;14186;53.822;10.152;2023-03-14T05:41:30;2.75;;;0.77;;
26512;SDS011;14186;53.822;10.152;2023-03-14T05:46:31;3.78;;;0.73;;
26512;SDS011;14186;53.822;10.152;2023-03-14T05:51:31;3.17;;;0.80;;
26512;SDS011;14186;53.822;10.152;2023-03-14T05:56:32;4.07;;;0.80;;
26512;SDS011;14186;53.822;10.152;2023-03-14T06:01:33;5.78;;;1.20;;
26512;SDS011;14186;53.822;10.152;2023-03-14T06:06:33;4.78;;;0.82;;
26512;SDS011;14186;53.822;10.152;2023-03-14T06:11:34;6.85;;;1.48;;
26512;SDS011;14186;53.822;10.152;2023-03-14T06:16:35;2.80;;;1.55;;
26512;SDS011;14186;53.822;10.152;2023-03-14T06:21:35;5.88;;;1.80;;
26512;SDS011;14186;53.822;10.152;2023-03-14T06:26:36;6.28;;;2.05;;
26512;SDS011;14186;53.822;10.152;2023-03-14T06:31:37;3.55;;;1.90;;
26512;SDS011;14186;53.822;10.152;2023-03-14T06:36:37;6.40;;;2.60;;
26512;SDS011;14186;53.822;10.152;2023-03-14T06:41:38;9.30;;;2.78;;
26512;SDS011;14186;53.822;10.152;2023-03-14T06:46:39;5.38;;;2.20;;
26512;SDS011;14186;53.822;10.152;2023-03-14T06:51:40;7.85;;;2.63;;
26512;SDS011;14186;53.822;10.152;2023-03-14T06:56:40;5.93;;;2.60;;
26512;SDS011;14186;53.822;10.152;2023-03-14T07:01:41;6.43;;;3.05;;
26512;SDS011;14186;53.822;10.152;2023-03-14T07:06:42;8.18;;;3.00;;
26512;SDS011;14186;53.822;10.152;2023-03-14T07:11:42;8.77;;;3.28;;
26512;SDS011;14186;53.822;10.152;2023-03-14T07:16:43;8.85;;;3.38;;
26512;SDS011;14186;53.822;10.152;2023-03-14T07:21:44;7.38;;;3.03;;
26512;SDS011;14186;53.822;10.152;2023-03-14T07:26:44;8.85;;;3.30;;
26512;SDS011;14186;53.822;10.152;2023-03-14T07:31:45;8.13;;;2.83;;
26512;SDS011;14186;53.822;10.152;2023-03-14T07:36:46;9.35;;;2.90;;
26512;SDS011;14186;53.822;10.152;2023-03-14T07:41:46;7.38;;;3.13;;
26512;SDS011;14186;53.822;10.152;2023-03-14T07:46:47;10.27;;;3.50;;
26512;SDS011;14186;53.822;10.152;2023-03-14T07:51:48;8.77;;;3.60;;
26512;SDS011;14186;53.822;10.152;2023-03-14T07:56:48;7.03;;;2.50;;
26512;SDS011;14186;53.822;10.152;2023-03-14T08:01:49;7.28;;;2.55;;
26512;SDS011;14186;53.822;10.152;2023-03-14T08:06:50;10.55;;;3.17;;
26512;SDS011;14186;53.822;10.152;2023-03-14T08:11:50;8.68;;;3.20;;
26512;SDS011;14186;53.822;10.152;2023-03-14T08:16:52;10.98;;;2.33;;
26512;SDS011;14186;53.822;10.152;2023-03-14T08:21:52;9.02;;;2.25;;
26512;SDS011;14186;53.822;10.152;2023-03-14T08:26:52;6.18;;;2.10;;
26512;SDS011;14186;53.822;10.152;2023-03-14T08:31:54;6.47;;;1.80;;
26512;SDS011;14186;53.822;10.152;2023-03-14T08:36:54;3.75;;;1.80;;
26512;SDS011;14186;53.822;10.152;2023-03-14T08:41:54;6.22;;;1.75;;
26512;SDS011;14186;53.822;10.152;2023-03-14T08:46:56;8.23;;;1.92;;
26512;SDS011;14186;53.822;10.152;2023-03-14T08:51:57;5.38;;;1.83;;
26512;SDS011;14186;53.822;10.152;2023-03-14T08:56:57;4.38;;;1.77;;
26512;SDS011;14186;53.822;10.152;2023-03-14T09:01:58;3.78;;;1.35;;
26512;SDS011;14186;53.822;10.152;2023-03-14T09:06:58;4.88;;;1.30;;
26512;SDS011;14186;53.822;10.152;2023-03-14T09:11:59;6.90;;;1.42;;
26512;SDS011;14186;53.822;10.152;2023-03-14T09:17:00;6.25;;;1.58;;
26512;SDS011;14186;53.822;10.152;2023-03-14T09:22:00;8.13;;;1.88;;
26512;SDS011;14186;53.822;10.152;2023-03-14T09:27:01;4.65;;;1.73;;
26512;SDS011;14186;53.822;10.152;2023-03-14T09:32:02;5.53;;;1.55;;
26512;SDS011;14186;53.822;10.152;2023-03-14T09:37:02;5.10;;;1.50;;
26512;SDS011;14186;53.822;10.152;2023-03-14T09:42:04;5.38;;;2.10;;
26512;SDS011;14186;53.822;10.152;2023-03-14T09:47:06;4.30;;;1.42;;
26512;SDS011;14186;53.822;10.152;2023-03-14T09:52:11;5.53;;;1.77;;
26512;SDS011;14186;53.822;10.152;2023-03-14T09:57:12;5.57;;;0.70;;
26512;SDS011;14186;53.822;10.152;2023-03-14T10:02:16;1.55;;;0.70;;
26512;SDS011;14186;53.822;10.152;2023-03-14T10:07:18;1.67;;;0.20;;
26512;SDS011;14186;53.822;10.152;2023-03-14T10:12:19;2.35;;;0.40;;
26512;SDS011;14186;53.822;10.152;2023-03-14T10:17:21;2.42;;;0.32;;
26512;SDS011;14186;53.822;10.152;2023-03-14T10:22:21;1.00;;;0.45;;
26512;SDS011;14186;53.822;10.152;2023-03-14T10:27:27;4.47;;;1.00;;
26512;SDS011;14186;53.822;10.152;2023-03-14T10:32:31;1.63;;;0.73;;
26512;SDS011;14186;53.822;10.152;2023-03-14T10:37:32;0.68;;;0.43;;
26512;SDS011;14186;53.822;10.152;2023-03-14T10:42:32;3.97;;;0.52;;
26512;SDS011;14186;53.822;10.152;2023-03-14T10:47:34;1.58;;;0.30;;
26512;SDS011;14186;53.822;10.152;2023-03-14T10:52:35;1.45;;;0.52;;
26512;SDS011;14186;53.822;10.152;2023-03-14T10:57:38;1.43;;;0.40;;
26512;SDS011;14186;53.822;10.152;2023-03-14T11:02:42;0.93;;;0.40;;
26512;SDS011;14186;53.822;10.152;2023-03-14T11:07:47;3.10;;;0.75;;
26512;SDS011;14186;53.822;10.152;2023-03-14T11:12:53;6.03;;;0.88;;
26512;SDS011;14186;53.822;10.152;2023-03-14T11:18:06;3.60;;;0.73;;
26512;SDS011;14186;53.822;10.152;2023-03-14T11:23:10;7.32;;;0.88;;
26512;SDS011;14186;53.822;10.152;2023-03-14T11:28:15;1.92;;;0.35;;
26512;SDS011;14186;53.822;10.152;2023-03-14T11:33:19;1.43;;;0.30;;
26512;SDS011;14186;53.822;10.152;2023-03-14T11:38:24;3.77;;;0.70;;
26512;SDS011;14186;53.822;10.152;2023-03-14T11:43:29;3.78;;;0.80;;
26512;SDS011;14186;53.822;10.152;2023-03-14T11:48:31;4.45;;;0.70;;
26512;SDS011;14186;53.822;10.152;2023-03-14T11:53:38;9.00;;;1.27;;
26512;SDS011;14186;53.822;10.152;2023-03-14T11:58:39;8.18;;;1.23;;
26512;SDS011;14186;53.822;10.152;2023-03-14T12:03:45;8.85;;;1.23;;
26512;SDS011;14186;53.822;10.152;2023-03-14T12:08:47;8.18;;;1.63;;
26512;SDS011;14186;53.822;10.152;2023-03-14T12:13:48;4.45;;;1.20;;
26512;SDS011;14186;53.822;10.152;2023-03-14T12:18:50;8.18;;;2.00;;
26512;SDS011;14186;53.822;10.152;2023-03-14T12:23:52;8.98;;;1.25;;
26512;SDS011;14186;53.822;10.152;2023-03-14T12:29:09;7.57;;;1.33;;
26512;SDS011;14186;53.822;10.152;2023-03-14T12:34:30;6.88;;;0.90;;
26512;SDS011;14186;53.822;10.152;2023-03-14T12:39:35;11.18;;;1.27;;
26512;SDS011;14186;53.822;10.152;2023-03-14T12:44:41;7.30;;;0.90;;
26512;SDS011;14186;53.822;10.152;2023-03-14T12:49:43;11.30;;;1.55;;
26512;SDS011;14186;53.822;10.152;2023-03-14T12:54:43;7.75;;;1.30;;
26512;SDS011;14186;53.822;10.152;2023-03-14T12:59:46;9.80;;;1.08;;
26512;SDS011;14186;53.822;10.152;2023-03-14T13:04:49;10.73;;;1.42;;
26512;SDS011;14186;53.822;10.152;2023-03-14T13:09:51;16.63;;;2.58;;
26512;SDS011;14186;53.822;10.152;2023-03-14T13:14:53;11.32;;;1.70;;
26512;SDS011;14186;53.822;10.152;2023-03-14T13:19:55;9.93;;;1.80;;
26512;SDS011;14186;53.822;10.152;2023-03-14T13:24:59;12.60;;;1.50;;
26512;SDS011;14186;53.822;10.152;2023-03-14T13:30:04;14.15;;;1.70;;
26512;SDS011;14186;53.822;10.152;2023-03-14T13:35:14;12.95;;;3.13;;
26512;SDS011;14186;53.822;10.152;2023-03-14T13:40:19;5.53;;;0.75;;
26512;SDS011;14186;53.822;10.152;2023-03-14T13:45:19;6.67;;;1.67;;
26512;SDS011;14186;53.822;10.152;2023-03-14T13:50:21;12.40;;;2.72;;
26512;SDS011;14186;53.822;10.152;2023-03-14T13:55:21;6.95;;;1.42;;
26512;SDS011;14186;53.822;10.152;2023-03-14T14:00:22;8.82;;;2.60;;
26512;SDS011;14186;53.822;10.152;2023-03-14T14:05:25;9.45;;;1.65;;
26512;SDS011;14186;53.822;10.152;2023-03-14T14:10:27;5.90;;;1.10;;
26512;SDS011;14186;53.822;10.152;2023-03-14T14:15:29;6.35;;;1.27;;
26512;SDS011;14186;53.822;10.152;2023-03-14T14:20:32;10.00;;;3.00;;
26512;SDS011;14186;53.822;10.152;2023-03-14T14:25:33;8.25;;;1.33;;
26512;SDS011;14186;53.822;10.152;2023-03-14T14:30:33;9.88;;;2.40;;
26512;SDS011;14186;53.822;10.152;2023-03-14T14:35:35;4.38;;;1.15;;
26512;SDS011;14186;53.822;10.152;2023-03-14T14:40:35;9.80;;;1.95;;
26512;SDS011;14186;53.822;10.152;2023-03-14T14:45:43;7.75;;;2.30;;
26512;SDS011;14186;53.822;10.152;2023-03-14T14:50:58;6.25;;;1.50;;
26512;SDS011;14186;53.822;10.152;2023-03-14T14:56:03;5.73;;;0.93;;
26512;SDS011;14186;53.822;10.152;2023-03-14T15:01:04;2.80;;;0.70;;
26512;SDS011;14186;53.822;10.152;2023-03-14T15:06:08;9.45;;;1.55;;
26512;SDS011;14186;53.822;10.152;2023-03-14T15:11:09;8.02;;;0.98;;
26512;SDS011;14186;53.822;10.152;2023-03-14T15:16:13;10.38;;;1.20;;
26512;SDS011;14186;53.822;10.152;2023-03-14T15:21:16;8.13;;;1.20;;
26512;SDS011;14186;53.822;10.152;2023-03-14T15:26:17;7.00;;;1.38;;
26512;SDS011;14186;53.822;10.152;2023-03-14T15:31:18;18.17;;;2.47;;
26512;SDS011;14186;53.822;10.152;2023-03-14T15:36:22;7.18;;;1.48;;
26512;SDS011;14186;53.822;10.152;2023-03-14T15:41:23;10.50;;;1.38;;
26512;SDS011;14186;53.822;10.152;2023-03-14T15:46:23;11.90;;;1.70;;
26512;SDS011;14186;53.822;10.152;2023-03-14T15:51:24;8.70;;;1.15;;
26512;SDS011;14186;53.822;10.152;2023-03-14T15:56:25;16.73;;;1.65;;
26512;SDS011;14186;53.822;10.152;2023-03-14T16:01:25;10.68;;;1.83;;
26512;SDS011;14186;53.822;10.152;2023-03-14T16:06:26;6.90;;;1.60;;
26512;SDS011;14186;53.822;10.152;2023-03-14T16:11:27;15.25;;;1.55;;
26512;SDS011;14186;53.822;10.152;2023-03-14T16:16:27;8.63;;;1.27;;
26512;SDS011;14186;53.822;10.152;2023-03-14T16:21:28;7.65;;;1.08;;
26512;SDS011;14186;53.822;10.152;2023-03-14T16:26:29;6.78;;;1.17;;
26512;SDS011;14186;53.822;10.152;2023-03-14T16:31:29;16.75;;;1.65;;
26512;SDS011;14186;53.822;10.152;2023-03-14T16:36:30;7.55;;;1.17;;
26512;SDS011;14186;53.822;10.152;2023-03-14T16:41:30;8.45;;;1.70;;
26512;SDS011;14186;53.822;10.152;2023-03-14T16:46:31;12.05;;;1.50;;
26512;SDS011;14186;53.822;10.152;2023-03-14T16:51:32;9.25;;;1.83;;
26512;SDS011;14186;53.822;10.152;2023-03-14T16:56:32;12.98;;;1.42;;
26512;SDS011;14186;53.822;10.152;2023-03-14T17:01:33;8.27;;;1.77;;
26512;SDS011;14186;53.822;10.152;2023-03-14T17:06:34;7.32;;;1.25;;
26512;SDS011;14186;53.822;10.152;2023-03-14T17:11:35;11.70;;;1.30;;
26512;SDS011;14186;53.822;10.152;2023-03-14T17:16:35;9.70;;;1.35;;
26512;SDS011;14186;53.822;10.152;2023-03-14T17:21:36;6.70;;;0.95;;
26512;SDS011;14186;53.822;10.152;2023-03-14T17:26:37;12.05;;;1.65;;
26512;SDS011;14186;53.822;10.152;2023-03-14T17:31:37;9.18;;;1.00;;
26512;SDS011;14186;53.822;10.152;2023-03-14T17:36:38;8.40;;;1.27;;
26512;SDS011;14186;53.822;10.152;2023-03-14T17:41:39;7.80;;;1.00;;
26512;SDS011;14186;53.822;10.152;2023-03-14T17:46:39;5.57;;;1.20;;
26512;SDS011;14186;53.822;10.152;2023-03-14T17:51:40;9.25;;;1.25;;
26512;SDS011;14186;53.822;10.152;2023-03-14T17:56:41;10.40;;;1.52;;
26512;SDS011;14186;53.822;10.152;2023-03-14T18:01:41;9.95;;;1.20;;
26512;SDS011;14186;53.822;10.152;2023-03-14T18:06:42;8.48;;;1.33;;
26512;SDS011;14186;53.822;10.152;2023-03-14T18:11:43;14.18;;;2.30;;
26512;SDS011;14186;53.822;10.152;2023-03-14T18:16:43;13.15;;;1.83;;
26512;SDS011;14186;53.822;10.152;2023-03-14T18:21:44;9.80;;;1.80;;
26512;SDS011;14186;53.822;10.152;2023-03-14T18:26:45;8.95;;;1.63;;
26512;SDS011;14186;53.822;10.152;2023-03-14T18:31:45;8.45;;;1.20;;
26512;SDS011;14186;53.822;10.152;2023-03-14T18:36:46;12.77;;;1.38;;
26512;SDS011;14186;53.822;10.152;2023-03-14T18:41:47;11.75;;;1.30;;
26512;SDS011;14186;53.822;10.152;2023-03-14T18:46:47;11.75;;;1.52;;
26512;SDS011;14186;53.822;10.152;2023-03-14T18:51:48;11.57;;;1.63;;
26512;SDS011;14186;53.822;10.152;2023-03-14T18:56:49;11.45;;;1.17;;
26512;SDS011;14186;53.822;10.152;2023-03-14T19:01:49;13.35;;;1.48;;
26512;SDS011;14186;53.822;10.152;2023-03-14T19:06:51;9.25;;;1.50;;
26512;SDS011;14186;53.822;10.152;2023-03-14T19:11:51;9.77;;;1.35;;
26512;SDS011;14186;53.822;10.152;2023-03-14T19:16:51;15.45;;;1.63;;
26512;SDS011;14186;53.822;10.152;2023-03-14T19:21:53;10.85;;;1.63;;
26512;SDS011;14186;53.822;10.152;2023-03-14T19:26:53;13.15;;;1.50;;
26512;SDS011;14186;53.822;10.152;2023-03-14T19:31:53;18.20;;;2.17;;
26512;SDS011;14186;53.822;10.152;2023-03-14T19:36:54;11.25;;;1.33;;
26512;SDS011;14186;53.822;10.152;2023-03-14T19:41:55;7.57;;;1.25;;
26512;SDS011;14186;53.822;10.152;2023-03-14T19:46:55;7.53;;;0.98;;
26512;SDS011;14186;53.822;10.152;2023-03-14T19:51:56;4.88;;;1.10;;
26512;SDS011;14186;53.822;10.152;2023-03-14T19:56:57;9.48;;;0.77;;
26512;SDS011;14186;53.822;10.152;2023-03-14T20:01:57;18.50;;;1.38;;
26512;SDS011;14186;53.822;10.152;2023-03-14T20:06:58;5.75;;;0.90;;
26512;SDS011;14186;53.822;10.152;2023-03-14T20:11:59;18.48;;;1.50;;
26512;SDS011;14186;53.822;10.152;2023-03-14T20:16:59;10.48;;;1.10;;
26512;SDS011;14186;53.822;10.152;2023-03-14T20:22:00;8.77;;;1.67;;
26512;SDS011;14186;53.822;10.152;2023-03-14T20:27:01;8.00;;;1.15;;
26512;SDS011;14186;53.822;10.152;2023-03-14T20:32:01;13.07;;;1.15;;
26512;SDS011;14186;53.822;10.152;2023-03-14T20:37:02;8.43;;;0.80;;
26512;SDS011;14186;53.822;10.152;2023-03-14T20:42:03;9.95;;;1.08;;
26512;SDS011;14186;53.822;10.152;2023-03-14T20:47:03;2.17;;;0.57;;
26512;SDS011;14186;53.822;10.152;2023-03-14T20:52:05;5.53;;;0.80;;
26512;SDS011;14186;53.822;10.152;2023-03-14T20:57:05;8.93;;;1.45;;
26512;SDS011;14186;53.822;10.152;2023-03-14T21:02:05;9.20;;;2.00;;
26512;SDS011;14186;53.822;10.152;2023-03-14T21:07:07;8.52;;;1.50;;
26512;SDS011;14186;53.822;10.152;2023-03-14T21:12:07;9.75;;;1.33;;
26512;SDS011;14186;53.822;10.152;2023-03-14T21:17:07;8.65;;;1.10;;
26512;SDS011;14186;53.822;10.152;2023-03-14T21:22:08;9.35;;;1.30;;
26512;SDS011;14186;53.822;10.152;2023-03-14T21:27:09;5.68;;;0.73;;
26512;SDS011;14186;53.822;10.152;2023-03-14T21:32:09;9.80;;;1.02;;
26512;SDS011;14186;53.822;10.152;2023-03-14T21:37:10;6.40;;;0.70;;
26512;SDS011;14186;53.822;10.152;2023-03-14T21:42:11;4.47;;;0.70;;
26512;SDS011;14186;53.822;10.152;2023-03-14T21:47:11;3.88;;;0.68;;
26512;SDS011;14186;53.822;10.152;2023-03-14T21:52:13;5.10;;;0.73;;
26512;SDS011;14186;53.822;10.152;2023-03-14T21:57:13;6.30;;;1.00;;
26512;SDS011;14186;53.822;10.152;2023-03-14T22:02:15;2.92;;;0.60;;
26512;SDS011;14186;53.822;10.152;2023-03-14T22:07:17;6.05;;;0.43;;
26512;SDS011;14186;53.822;10.152;2023-03-14T22:17:17;6.57;;;0.82;;
26512;SDS011;14186;53.822;10.152;2023-03-14T23:02:19;2.85;;;0.88;;
26512;SDS011;14186;53.822;10.152;2023-03-14T23:07:19;2.72;;;1.00;;
26512;SDS011;14186;53.822;10.152;2023-03-14T23:12:19;2.53;;;0.75;;
26512;SDS011;14186;53.822;10.152;2023-03-14T23:17:21;4.85;;;1.35;;
26512;SDS011;14186;53.822;10.152;2023-03-14T23:22:21;6.55;;;1.33;;
26512;SDS011;14186;53.822;10.152;2023-03-14T23:27:21;3.65;;;1.05;;
26512;SDS011;14186;53.822;10.152;2023-03-14T23:32:23;7.57;;;1.60;;
26512;SDS011;14186;53.822;10.152;2023-03-14T23:37:23;4.45;;;1.10;;
26512;SDS011;14186;53.822;10.152;2023-03-14T23:42:23;3.60;;;0.68;;
26512;SDS011;14186;53.822;10.152;2023-03-14T23:47:25;2.80;;;0.60;;
26512;SDS011;14186;53.822;10.152;2023-03-14T23:52:25;6.43;;;0.70;;
26512;SDS011;14186;53.822;10.152;2023-03-14T23:57:25;4.18;;;0.88;;
